sensor_id;sensor_type;location;lat;lon;timestamp;pressure;altitude;pressure_sealevel;temperature;humidity
46211;BME280;52144;48.040;-1.594;2023-07-09T00:01:21;101311.22;;;25.87;66.75
46211;BME280;52144;48.040;-1.594;2023-07-09T00:03:51;101302.56;;;25.74;67.10
46211;BME280;52144;48.040;-1.594;2023-07-09T00:06:20;101307.66;;;25.69;68.27
46211;BME280;52144;48.040;-1.594;2023-07-09T00:08:48;101308.06;;;25.46;68.40
46211;BME280;52144;48.040;-1.594;2023-07-09T00:11:17;101308.56;;;25.04;68.60
46211;BME280;52144;48.040;-1.594;2023-07-09T00:13:45;101298.63;;;25.13;68.87
46211;BME280;52144;48.040;-1.594;2023-07-09T00:16:15;101290.88;;;25.63;67.00
46211;BME280;52144;48.040;-1.594;2023-07-09T00:18:43;101284.63;;;25.53;68.17
46211;BME280;52144;48.040;-1.594;2023-07-09T00:21:13;101293.81;;;25.70;67.90
46211;BME280;52144;48.040;-1.594;2023-07-09T00:23:40;101305.59;;;25.89;66.41
46211;BME280;52144;48.040;-1.594;2023-07-09T00:26:09;101309.50;;;25.86;66.83
46211;BME280;52144;48.040;-1.594;2023-07-09T00:28:40;101308.78;;;25.66;67.62
46211;BME280;52144;48.040;-1.594;2023-07-09T00:31:09;101311.06;;;25.71;67.67
46211;BME280;52144;48.040;-1.594;2023-07-09T00:33:40;101300.25;;;25.79;67.62
46211;BME280;52144;48.040;-1.594;2023-07-09T00:36:15;101309.75;;;25.75;68.17
46211;BME280;52144;48.040;-1.594;2023-07-09T00:38:43;101303.31;;;25.48;69.26
46211;BME280;52144;48.040;-1.594;2023-07-09T00:41:17;101313.28;;;25.39;68.79
46211;BME280;52144;48.040;-1.594;2023-07-09T00:43:47;101315.66;;;25.25;69.28
46211;BME280;52144;48.040;-1.594;2023-07-09T00:49:02;101308.19;;;25.27;70.00
46211;BME280;52144;48.040;-1.594;2023-07-09T00:51:36;101318.34;;;25.34;69.26
46211;BME280;52144;48.040;-1.594;2023-07-09T00:54:13;101310.53;;;25.12;69.73
46211;BME280;52144;48.040;-1.594;2023-07-09T00:56:44;101313.66;;;25.17;69.68
46211;BME280;52144;48.040;-1.594;2023-07-09T00:59:21;101322.34;;;25.02;70.42
46211;BME280;52144;48.040;-1.594;2023-07-09T01:01:49;101325.50;;;25.08;69.99
46211;BME280;52144;48.040;-1.594;2023-07-09T01:04:19;101303.44;;;24.91;70.63
46211;BME280;52144;48.040;-1.594;2023-07-09T01:06:52;101303.75;;;24.88;71.11
46211;BME280;52144;48.040;-1.594;2023-07-09T01:09:21;101309.56;;;25.03;70.56
46211;BME280;52144;48.040;-1.594;2023-07-09T01:11:49;101317.19;;;24.99;70.67
46211;BME280;52144;48.040;-1.594;2023-07-09T01:14:19;101318.41;;;25.25;69.29
46211;BME280;52144;48.040;-1.594;2023-07-09T01:16:52;101326.34;;;25.08;69.87
46211;BME280;52144;48.040;-1.594;2023-07-09T01:19:24;101327.31;;;25.07;69.52
46211;BME280;52144;48.040;-1.594;2023-07-09T01:21:55;101336.31;;;25.17;69.44
46211;BME280;52144;48.040;-1.594;2023-07-09T01:27:32;101342.97;;;25.05;71.24
46211;BME280;52144;48.040;-1.594;2023-07-09T01:30:02;101342.66;;;25.18;70.50
46211;BME280;52144;48.040;-1.594;2023-07-09T01:32:30;101338.06;;;25.18;71.05
46211;BME280;52144;48.040;-1.594;2023-07-09T01:35:02;101347.88;;;25.39;69.24
46211;BME280;52144;48.040;-1.594;2023-07-09T01:37:34;101362.41;;;25.30;70.10
46211;BME280;52144;48.040;-1.594;2023-07-09T01:40:04;101366.19;;;25.09;71.13
46211;BME280;52144;48.040;-1.594;2023-07-09T01:42:55;101366.63;;;25.14;71.57
46211;BME280;52144;48.040;-1.594;2023-07-09T01:45:24;101358.81;;;24.92;72.50
46211;BME280;52144;48.040;-1.594;2023-07-09T01:47:52;101354.25;;;24.82;74.24
46211;BME280;52144;48.040;-1.594;2023-07-09T01:50:22;101347.63;;;24.95;72.44
46211;BME280;52144;48.040;-1.594;2023-07-09T01:52:52;101350.75;;;25.00;72.60
46211;BME280;52144;48.040;-1.594;2023-07-09T01:55:21;101355.94;;;24.93;72.70
46211;BME280;52144;48.040;-1.594;2023-07-09T01:57:49;101354.13;;;24.74;72.53
46211;BME280;52144;48.040;-1.594;2023-07-09T02:00:18;101352.66;;;24.90;72.23
46211;BME280;52144;48.040;-1.594;2023-07-09T02:02:46;101349.22;;;24.88;72.12
46211;BME280;52144;48.040;-1.594;2023-07-09T02:05:17;101350.94;;;24.89;72.17
46211;BME280;52144;48.040;-1.594;2023-07-09T02:07:45;101347.22;;;24.90;72.07
46211;BME280;52144;48.040;-1.594;2023-07-09T02:10:16;101346.81;;;24.75;72.20
46211;BME280;52144;48.040;-1.594;2023-07-09T02:12:45;101355.19;;;24.54;73.06
46211;BME280;52144;48.040;-1.594;2023-07-09T02:15:14;101360.06;;;24.50;76.39
46211;BME280;52144;48.040;-1.594;2023-07-09T02:17:42;101356.31;;;24.41;77.40
46211;BME280;52144;48.040;-1.594;2023-07-09T02:20:11;101336.81;;;24.46;78.24
46211;BME280;52144;48.040;-1.594;2023-07-09T02:22:42;101334.25;;;24.45;78.28
46211;BME280;52144;48.040;-1.594;2023-07-09T02:25:10;101347.16;;;24.42;79.47
46211;BME280;52144;48.040;-1.594;2023-07-09T02:27:39;101332.69;;;24.32;80.08
46211;BME280;52144;48.040;-1.594;2023-07-09T02:30:08;101334.84;;;24.09;80.07
46211;BME280;52144;48.040;-1.594;2023-07-09T02:32:37;101319.22;;;24.01;81.26
46211;BME280;52144;48.040;-1.594;2023-07-09T02:35:07;101324.25;;;24.06;81.81
46211;BME280;52144;48.040;-1.594;2023-07-09T02:37:35;101327.97;;;24.05;81.67
46211;BME280;52144;48.040;-1.594;2023-07-09T02:40:04;101327.25;;;24.13;82.28
46211;BME280;52144;48.040;-1.594;2023-07-09T02:42:33;101339.97;;;24.32;80.21
46211;BME280;52144;48.040;-1.594;2023-07-09T02:45:02;101344.00;;;24.37;80.96
46211;BME280;52144;48.040;-1.594;2023-07-09T02:47:30;101340.41;;;24.37;74.90
46211;BME280;52144;48.040;-1.594;2023-07-09T02:49:58;101343.28;;;24.35;71.81
46211;BME280;52144;48.040;-1.594;2023-07-09T02:52:26;101346.88;;;24.16;74.23
46211;BME280;52144;48.040;-1.594;2023-07-09T02:54:54;101348.31;;;24.11;75.63
46211;BME280;52144;48.040;-1.594;2023-07-09T02:57:22;101350.59;;;24.06;77.07
46211;BME280;52144;48.040;-1.594;2023-07-09T02:59:49;101340.16;;;24.11;77.50
46211;BME280;52144;48.040;-1.594;2023-07-09T03:02:19;101344.72;;;24.20;76.67
46211;BME280;52144;48.040;-1.594;2023-07-09T03:04:46;101332.13;;;24.29;76.77
46211;BME280;52144;48.040;-1.594;2023-07-09T03:07:14;101328.25;;;24.31;79.05
46211;BME280;52144;48.040;-1.594;2023-07-09T03:09:42;101333.56;;;24.23;79.79
46211;BME280;52144;48.040;-1.594;2023-07-09T03:12:10;101334.84;;;24.09;81.66
46211;BME280;52144;48.040;-1.594;2023-07-09T03:14:38;101334.84;;;24.19;81.77
46211;BME280;52144;48.040;-1.594;2023-07-09T03:17:06;101333.09;;;24.18;81.53
46211;BME280;52144;48.040;-1.594;2023-07-09T03:19:35;101336.25;;;24.03;82.31
46211;BME280;52144;48.040;-1.594;2023-07-09T03:22:03;101333.09;;;24.18;82.01
46211;BME280;52144;48.040;-1.594;2023-07-09T03:24:31;101329.66;;;24.16;81.70
46211;BME280;52144;48.040;-1.594;2023-07-09T03:26:59;101325.09;;;23.97;83.59
46211;BME280;52144;48.040;-1.594;2023-07-09T03:29:27;101328.13;;;23.84;82.94
46211;BME280;52144;48.040;-1.594;2023-07-09T03:31:55;101321.38;;;23.78;83.03
46211;BME280;52144;48.040;-1.594;2023-07-09T03:34:23;101322.81;;;23.92;83.52
46211;BME280;52144;48.040;-1.594;2023-07-09T03:36:52;101314.50;;;23.84;82.67
46211;BME280;52144;48.040;-1.594;2023-07-09T03:39:19;101319.06;;;23.93;82.66
46211;BME280;52144;48.040;-1.594;2023-07-09T03:41:47;101313.59;;;23.74;82.91
46211;BME280;52144;48.040;-1.594;2023-07-09T03:44:15;101303.81;;;23.42;84.54
46211;BME280;52144;48.040;-1.594;2023-07-09T03:46:43;101289.56;;;23.09;86.69
46211;BME280;52144;48.040;-1.594;2023-07-09T03:49:11;101294.16;;;22.88;87.73
46211;BME280;52144;48.040;-1.594;2023-07-09T03:51:39;101288.41;;;23.12;87.05
46211;BME280;52144;48.040;-1.594;2023-07-09T03:54:08;101299.06;;;23.25;86.41
46211;BME280;52144;48.040;-1.594;2023-07-09T03:56:35;101296.66;;;23.41;85.60
46211;BME280;52144;48.040;-1.594;2023-07-09T03:59:04;101294.94;;;23.40;86.40
46211;BME280;52144;48.040;-1.594;2023-07-09T04:01:32;101285.75;;;23.21;87.15
46211;BME280;52144;48.040;-1.594;2023-07-09T04:04:00;101275.25;;;22.76;88.76
46211;BME280;52144;48.040;-1.594;2023-07-09T04:06:28;101269.44;;;22.91;88.28
46211;BME280;52144;48.040;-1.594;2023-07-09T04:08:55;101278.78;;;22.98;87.62
46211;BME280;52144;48.040;-1.594;2023-07-09T04:11:25;101287.56;;;23.11;86.93
46211;BME280;52144;48.040;-1.594;2023-07-09T04:13:52;101305.22;;;23.36;86.96
46211;BME280;52144;48.040;-1.594;2023-07-09T04:16:20;101311.69;;;23.55;85.23
46211;BME280;52144;48.040;-1.594;2023-07-09T04:18:48;101320.91;;;23.63;85.25
46211;BME280;52144;48.040;-1.594;2023-07-09T04:21:16;101329.47;;;23.59;84.68
46211;BME280;52144;48.040;-1.594;2023-07-09T04:23:44;101330.75;;;23.45;85.52
46211;BME280;52144;48.040;-1.594;2023-07-09T04:26:13;101341.50;;;23.56;84.73
46211;BME280;52144;48.040;-1.594;2023-07-09T04:28:42;101358.28;;;23.71;85.07
46211;BME280;52144;48.040;-1.594;2023-07-09T04:31:10;101367.78;;;23.96;83.11
46211;BME280;52144;48.040;-1.594;2023-07-09T04:33:38;101370.34;;;24.08;82.59
46211;BME280;52144;48.040;-1.594;2023-07-09T04:36:06;101364.94;;;23.98;82.59
46211;BME280;52144;48.040;-1.594;2023-07-09T04:38:35;101387.00;;;24.05;82.10
46211;BME280;52144;48.040;-1.594;2023-07-09T04:41:03;101383.56;;;24.02;83.02
46211;BME280;52144;48.040;-1.594;2023-07-09T04:43:31;101402.03;;;23.99;84.19
46211;BME280;52144;48.040;-1.594;2023-07-09T04:46:00;101426.53;;;24.09;82.07
46211;BME280;52144;48.040;-1.594;2023-07-09T04:48:28;101440.41;;;24.06;81.94
46211;BME280;52144;48.040;-1.594;2023-07-09T04:50:56;101420.81;;;24.02;82.48
46211;BME280;52144;48.040;-1.594;2023-07-09T04:53:26;101434.56;;;24.10;81.81
46211;BME280;52144;48.040;-1.594;2023-07-09T04:55:54;101428.56;;;24.16;80.79
46211;BME280;52144;48.040;-1.594;2023-07-09T04:58:22;101420.22;;;23.98;81.83
46211;BME280;52144;48.040;-1.594;2023-07-09T05:00:50;101415.44;;;23.81;86.17
46211;BME280;52144;48.040;-1.594;2023-07-09T05:03:19;101432.41;;;23.94;86.63
46211;BME280;52144;48.040;-1.594;2023-07-09T05:05:47;101418.22;;;23.60;86.72
46211;BME280;52144;48.040;-1.594;2023-07-09T05:08:15;101403.94;;;23.68;88.45
46211;BME280;52144;48.040;-1.594;2023-07-09T05:10:45;101398.00;;;23.43;88.97
46211;BME280;52144;48.040;-1.594;2023-07-09T05:13:13;101418.38;;;23.58;89.51
46211;BME280;52144;48.040;-1.594;2023-07-09T05:15:42;101420.38;;;23.56;88.55
46211;BME280;52144;48.040;-1.594;2023-07-09T05:18:11;101421.09;;;23.58;88.49
46211;BME280;52144;48.040;-1.594;2023-07-09T05:20:41;101408.78;;;23.64;87.64
46211;BME280;52144;48.040;-1.594;2023-07-09T05:23:09;101408.94;;;23.62;86.85
46211;BME280;52144;48.040;-1.594;2023-07-09T05:25:37;101425.28;;;23.72;88.47
46211;BME280;52144;48.040;-1.594;2023-07-09T05:28:05;101412.81;;;23.70;87.28
46211;BME280;52144;48.040;-1.594;2023-07-09T05:30:33;101427.16;;;23.72;87.66
46211;BME280;52144;48.040;-1.594;2023-07-09T05:33:01;101437.28;;;23.60;87.87
46211;BME280;52144;48.040;-1.594;2023-07-09T05:35:29;101443.53;;;23.51;88.61
46211;BME280;52144;48.040;-1.594;2023-07-09T05:37:58;101438.41;;;23.57;88.43
46211;BME280;52144;48.040;-1.594;2023-07-09T05:40:26;101446.47;;;23.69;88.35
46211;BME280;52144;48.040;-1.594;2023-07-09T05:42:53;101455.34;;;23.71;87.54
46211;BME280;52144;48.040;-1.594;2023-07-09T05:45:21;101464.03;;;23.86;87.56
46211;BME280;52144;48.040;-1.594;2023-07-09T05:47:49;101466.88;;;23.84;86.88
46211;BME280;52144;48.040;-1.594;2023-07-09T05:50:17;101463.94;;;23.66;88.04
46211;BME280;52144;48.040;-1.594;2023-07-09T05:52:45;101452.78;;;23.69;88.34
46211;BME280;52144;48.040;-1.594;2023-07-09T05:55:14;101439.72;;;23.32;88.78
46211;BME280;52144;48.040;-1.594;2023-07-09T05:57:42;101440.00;;;23.29;89.62
46211;BME280;52144;48.040;-1.594;2023-07-09T06:00:11;101451.28;;;23.55;88.11
46211;BME280;52144;48.040;-1.594;2023-07-09T06:02:39;101445.13;;;23.53;88.14
46211;BME280;52144;48.040;-1.594;2023-07-09T06:05:07;101428.13;;;23.71;88.50
46211;BME280;52144;48.040;-1.594;2023-07-09T06:07:37;101431.31;;;23.76;86.09
46211;BME280;52144;48.040;-1.594;2023-07-09T06:10:06;101442.25;;;23.95;86.10
46211;BME280;52144;48.040;-1.594;2023-07-09T06:12:36;101448.16;;;24.00;86.64
46211;BME280;52144;48.040;-1.594;2023-07-09T06:15:05;101447.44;;;23.98;86.02
46211;BME280;52144;48.040;-1.594;2023-07-09T06:17:33;101447.31;;;24.00;86.93
46211;BME280;52144;48.040;-1.594;2023-07-09T06:20:01;101435.13;;;24.04;87.00
46211;BME280;52144;48.040;-1.594;2023-07-09T06:22:29;101434.25;;;24.03;86.80
46211;BME280;52144;48.040;-1.594;2023-07-09T06:24:56;101440.47;;;23.75;87.54
46211;BME280;52144;48.040;-1.594;2023-07-09T06:27:24;101436.41;;;23.90;86.24
46211;BME280;52144;48.040;-1.594;2023-07-09T06:29:53;101445.69;;;23.78;88.31
46211;BME280;52144;48.040;-1.594;2023-07-09T06:32:21;101456.00;;;23.84;86.86
46211;BME280;52144;48.040;-1.594;2023-07-09T06:34:49;101457.16;;;23.81;87.65
46211;BME280;52144;48.040;-1.594;2023-07-09T06:37:17;101452.56;;;23.82;87.21
46211;BME280;52144;48.040;-1.594;2023-07-09T06:39:45;101453.88;;;23.88;87.95
46211;BME280;52144;48.040;-1.594;2023-07-09T06:42:13;101444.53;;;23.80;88.60
46211;BME280;52144;48.040;-1.594;2023-07-09T06:44:41;101457.44;;;23.88;89.48
46211;BME280;52144;48.040;-1.594;2023-07-09T06:47:10;101446.47;;;23.69;88.51
46211;BME280;52144;48.040;-1.594;2023-07-09T06:49:38;101444.63;;;23.69;89.69
46211;BME280;52144;48.040;-1.594;2023-07-09T06:52:06;101455.72;;;23.87;88.61
46211;BME280;52144;48.040;-1.594;2023-07-09T06:54:34;101447.31;;;24.00;87.69
46211;BME280;52144;48.040;-1.594;2023-07-09T06:57:02;101446.13;;;23.93;87.94
46211;BME280;52144;48.040;-1.594;2023-07-09T06:59:30;101461.38;;;24.25;87.11
46211;BME280;52144;48.040;-1.594;2023-07-09T07:01:58;101472.00;;;24.37;87.22
46211;BME280;52144;48.040;-1.594;2023-07-09T07:04:27;101465.84;;;24.45;86.09
46211;BME280;52144;48.040;-1.594;2023-07-09T07:06:56;101462.13;;;24.56;85.90
46211;BME280;52144;48.040;-1.594;2023-07-09T07:09:23;101463.28;;;24.63;84.76
46211;BME280;52144;48.040;-1.594;2023-07-09T07:11:51;101457.28;;;24.69;84.74
46211;BME280;52144;48.040;-1.594;2023-07-09T07:14:19;101464.44;;;24.51;85.75
46211;BME280;52144;48.040;-1.594;2023-07-09T07:16:47;101455.06;;;24.34;84.56
46211;BME280;52144;48.040;-1.594;2023-07-09T07:19:15;101457.25;;;24.30;87.00
46211;BME280;52144;48.040;-1.594;2023-07-09T07:21:44;101457.25;;;24.30;85.83
46211;BME280;52144;48.040;-1.594;2023-07-09T07:24:12;101462.84;;;24.58;86.25
46211;BME280;52144;48.040;-1.594;2023-07-09T07:26:40;101460.41;;;24.74;84.05
46211;BME280;52144;48.040;-1.594;2023-07-09T07:29:07;101464.28;;;24.62;86.48
46211;BME280;52144;48.040;-1.594;2023-07-09T07:31:35;101461.28;;;24.55;84.78
46211;BME280;52144;48.040;-1.594;2023-07-09T07:34:03;101455.53;;;24.58;86.18
46211;BME280;52144;48.040;-1.594;2023-07-09T07:36:31;101459.28;;;24.67;85.80
46211;BME280;52144;48.040;-1.594;2023-07-09T07:39:05;101465.25;;;24.90;84.36
46211;BME280;52144;48.040;-1.594;2023-07-09T07:41:33;101476.75;;;24.94;83.95
46211;BME280;52144;48.040;-1.594;2023-07-09T07:44:01;101480.59;;;24.91;83.98
46211;BME280;52144;48.040;-1.594;2023-07-09T07:46:29;101477.31;;;24.88;85.61
46211;BME280;52144;48.040;-1.594;2023-07-09T07:48:59;101477.16;;;24.99;83.81
46211;BME280;52144;48.040;-1.594;2023-07-09T07:51:26;101465.84;;;24.74;85.23
46211;BME280;52144;48.040;-1.594;2023-07-09T07:53:55;101471.88;;;24.88;83.97
46211;BME280;52144;48.040;-1.594;2023-07-09T07:56:25;101465.25;;;25.00;83.69
46211;BME280;52144;48.040;-1.594;2023-07-09T07:58:53;101470.72;;;24.80;84.21
46211;BME280;52144;48.040;-1.594;2023-07-09T08:01:21;101465.00;;;24.64;84.90
46211;BME280;52144;48.040;-1.594;2023-07-09T08:03:48;101464.53;;;24.98;83.06
46211;BME280;52144;48.040;-1.594;2023-07-09T08:06:16;101463.75;;;25.15;82.33
46211;BME280;52144;48.040;-1.594;2023-07-09T08:08:44;101459.00;;;25.37;81.82
46211;BME280;52144;48.040;-1.594;2023-07-09T08:11:12;101459.41;;;25.42;80.09
46211;BME280;52144;48.040;-1.594;2023-07-09T08:13:41;101456.84;;;25.40;81.53
46211;BME280;52144;48.040;-1.594;2023-07-09T08:16:09;101463.09;;;25.60;80.26
46211;BME280;52144;48.040;-1.594;2023-07-09T08:18:38;101473.88;;;25.90;79.67
46211;BME280;52144;48.040;-1.594;2023-07-09T08:21:06;101473.88;;;25.80;78.76
46211;BME280;52144;48.040;-1.594;2023-07-09T08:23:35;101473.75;;;25.81;79.82
46211;BME280;52144;48.040;-1.594;2023-07-09T08:26:03;101485.94;;;25.87;79.07
46211;BME280;52144;48.040;-1.594;2023-07-09T08:28:32;101472.69;;;25.92;76.58
46211;BME280;52144;48.040;-1.594;2023-07-09T08:31:01;101475.53;;;26.00;77.63
46211;BME280;52144;48.040;-1.594;2023-07-09T08:33:30;101480.22;;;26.08;76.53
46211;BME280;52144;48.040;-1.594;2023-07-09T08:35:58;101489.66;;;25.96;73.90
46211;BME280;52144;48.040;-1.594;2023-07-09T08:38:26;101494.41;;;25.94;74.49
46211;BME280;52144;48.040;-1.594;2023-07-09T08:40:58;101491.44;;;25.77;74.03
46211;BME280;52144;48.040;-1.594;2023-07-09T08:43:39;101496.03;;;25.77;73.96
46211;BME280;52144;48.040;-1.594;2023-07-09T08:46:19;101493.94;;;25.89;73.90
46211;BME280;52144;48.040;-1.594;2023-07-09T08:48:50;101497.28;;;25.92;74.03
46211;BME280;52144;48.040;-1.594;2023-07-09T08:51:24;101487.38;;;25.91;73.46
46211;BME280;52144;48.040;-1.594;2023-07-09T08:53:57;101502.22;;;25.79;73.01
46211;BME280;52144;48.040;-1.594;2023-07-09T08:56:26;101507.59;;;25.61;70.03
46211;BME280;52144;48.040;-1.594;2023-07-09T08:58:55;101512.56;;;25.18;72.06
46211;BME280;52144;48.040;-1.594;2023-07-09T09:01:37;101502.53;;;25.09;71.75
46211;BME280;52144;48.040;-1.594;2023-07-09T09:04:15;101502.50;;;25.19;71.69
46211;BME280;52144;48.040;-1.594;2023-07-09T09:06:50;101495.88;;;25.41;75.14
46211;BME280;52144;48.040;-1.594;2023-07-09T09:09:28;101501.28;;;25.88;71.67
46211;BME280;52144;48.040;-1.594;2023-07-09T09:12:04;101499.91;;;26.12;71.03
46211;BME280;52144;48.040;-1.594;2023-07-09T09:14:38;101508.47;;;25.89;73.93
46211;BME280;52144;48.040;-1.594;2023-07-09T09:17:12;101516.25;;;25.84;74.82
46211;BME280;52144;48.040;-1.594;2023-07-09T09:19:45;101504.47;;;25.46;77.10
46211;BME280;52144;48.040;-1.594;2023-07-09T09:22:15;101508.59;;;25.97;74.99
46211;BME280;52144;48.040;-1.594;2023-07-09T09:24:55;101513.75;;;26.28;72.99
46211;BME280;52144;48.040;-1.594;2023-07-09T09:27:24;101515.41;;;26.57;71.69
46211;BME280;52144;48.040;-1.594;2023-07-09T09:29:52;101511.75;;;26.84;68.82
46211;BME280;52144;48.040;-1.594;2023-07-09T09:32:25;101526.34;;;26.93;68.07
46211;BME280;52144;48.040;-1.594;2023-07-09T09:34:54;101526.44;;;26.65;68.78
46211;BME280;52144;48.040;-1.594;2023-07-09T09:37:27;101529.84;;;26.04;71.94
46211;BME280;52144;48.040;-1.594;2023-07-09T09:39:56;101539.25;;;26.65;69.95
46211;BME280;52144;48.040;-1.594;2023-07-09T09:42:40;101540.56;;;26.78;69.22
46211;BME280;52144;48.040;-1.594;2023-07-09T09:45:12;101540.41;;;26.80;67.94
46211;BME280;52144;48.040;-1.594;2023-07-09T09:47:42;101533.09;;;26.07;68.18
46211;BME280;52144;48.040;-1.594;2023-07-09T09:50:13;101529.88;;;26.39;68.84
46211;BME280;52144;48.040;-1.594;2023-07-09T09:52:43;101525.31;;;26.58;68.33
46211;BME280;52144;48.040;-1.594;2023-07-09T09:55:14;101520.72;;;26.76;68.58
46211;BME280;52144;48.040;-1.594;2023-07-09T09:57:48;101521.00;;;26.37;65.88
46211;BME280;52144;48.040;-1.594;2023-07-09T10:00:17;101519.84;;;26.40;67.00
46211;BME280;52144;48.040;-1.594;2023-07-09T10:02:47;101517.56;;;26.35;67.73
46211;BME280;52144;48.040;-1.594;2023-07-09T10:05:16;101525.00;;;26.15;68.35
46211;BME280;52144;48.040;-1.594;2023-07-09T10:07:56;101515.09;;;26.60;66.93
46211;BME280;52144;48.040;-1.594;2023-07-09T10:10:28;101521.13;;;26.64;67.88
46211;BME280;52144;48.040;-1.594;2023-07-09T10:13:04;101520.28;;;26.35;68.43
46211;BME280;52144;48.040;-1.594;2023-07-09T10:15:39;101520.16;;;26.55;67.66
46211;BME280;52144;48.040;-1.594;2023-07-09T10:18:22;101516.19;;;26.85;66.57
46211;BME280;52144;48.040;-1.594;2023-07-09T10:21:02;101525.44;;;27.10;65.61
46211;BME280;52144;48.040;-1.594;2023-07-09T10:23:37;101533.47;;;26.68;67.47
46211;BME280;52144;48.040;-1.594;2023-07-09T10:26:10;101540.19;;;26.46;66.25
46211;BME280;52144;48.040;-1.594;2023-07-09T10:28:54;101542.38;;;25.49;69.38
46211;BME280;52144;48.040;-1.594;2023-07-09T10:31:32;101554.59;;;25.92;69.05
46211;BME280;52144;48.040;-1.594;2023-07-09T10:34:13;101548.84;;;26.23;67.88
46211;BME280;52144;48.040;-1.594;2023-07-09T10:36:54;101555.69;;;26.55;66.77
46211;BME280;52144;48.040;-1.594;2023-07-09T10:39:32;101555.50;;;26.38;67.76
46211;BME280;52144;48.040;-1.594;2023-07-09T10:42:02;101550.94;;;26.29;69.49
46211;BME280;52144;48.040;-1.594;2023-07-09T10:44:33;101549.72;;;25.86;71.38
46211;BME280;52144;48.040;-1.594;2023-07-09T10:47:05;101551.44;;;25.87;70.79
46211;BME280;52144;48.040;-1.594;2023-07-09T10:49:38;101551.16;;;25.90;71.03
46211;BME280;52144;48.040;-1.594;2023-07-09T10:52:13;101551.72;;;25.84;71.56
46211;BME280;52144;48.040;-1.594;2023-07-09T10:54:54;101546.97;;;25.96;71.62
46211;BME280;52144;48.040;-1.594;2023-07-09T10:57:29;101543.41;;;25.95;71.89
46211;BME280;52144;48.040;-1.594;2023-07-09T10:59:57;101544.31;;;26.14;70.72
46211;BME280;52144;48.040;-1.594;2023-07-09T11:02:29;101542.69;;;25.83;71.91
46211;BME280;52144;48.040;-1.594;2023-07-09T11:05:00;101553.28;;;25.96;72.62
46211;BME280;52144;48.040;-1.594;2023-07-09T11:07:32;101556.97;;;26.05;71.97
46211;BME280;52144;48.040;-1.594;2023-07-09T11:10:05;101555.59;;;25.44;75.51
46211;BME280;52144;48.040;-1.594;2023-07-09T11:12:37;101555.16;;;25.49;76.27
46211;BME280;52144;48.040;-1.594;2023-07-09T11:15:12;101544.94;;;25.60;75.63
46211;BME280;52144;48.040;-1.594;2023-07-09T11:17:43;101550.91;;;25.74;74.78
46211;BME280;52144;48.040;-1.594;2023-07-09T11:20:20;101555.13;;;26.06;72.89
46211;BME280;52144;48.040;-1.594;2023-07-09T11:22:53;101551.94;;;26.38;70.29
46211;BME280;52144;48.040;-1.594;2023-07-09T11:25:30;101554.56;;;26.48;69.47
46211;BME280;52144;48.040;-1.594;2023-07-09T11:28:03;101554.28;;;26.23;69.82
46211;BME280;52144;48.040;-1.594;2023-07-09T11:30:32;101554.66;;;25.73;72.19
46211;BME280;52144;48.040;-1.594;2023-07-09T11:33:02;101561.44;;;25.69;72.21
46211;BME280;52144;48.040;-1.594;2023-07-09T11:35:53;101560.13;;;25.73;72.42
46211;BME280;52144;48.040;-1.594;2023-07-09T11:38:23;101556.91;;;25.87;71.69
46211;BME280;52144;48.040;-1.594;2023-07-09T11:40:53;101562.28;;;26.07;71.16
46211;BME280;52144;48.040;-1.594;2023-07-09T11:43:31;101556.88;;;25.97;71.40
46211;BME280;52144;48.040;-1.594;2023-07-09T11:46:07;101562.44;;;26.05;71.17
46211;BME280;52144;48.040;-1.594;2023-07-09T11:48:40;101556.78;;;25.79;72.79
46211;BME280;52144;48.040;-1.594;2023-07-09T11:51:15;101557.91;;;25.86;73.49
46211;BME280;52144;48.040;-1.594;2023-07-09T11:53:46;101557.53;;;26.09;74.47
46211;BME280;52144;48.040;-1.594;2023-07-09T11:56:18;101552.97;;;26.27;73.11
46211;BME280;52144;48.040;-1.594;2023-07-09T11:58:50;101559.16;;;26.01;75.21
46211;BME280;52144;48.040;-1.594;2023-07-09T12:01:21;101553.06;;;25.70;76.29
46211;BME280;52144;48.040;-1.594;2023-07-09T12:03:50;101550.69;;;25.57;77.13
46211;BME280;52144;48.040;-1.594;2023-07-09T12:06:22;101556.16;;;25.48;78.00
46211;BME280;52144;48.040;-1.594;2023-07-09T12:08:51;101558.38;;;25.72;76.19
46211;BME280;52144;48.040;-1.594;2023-07-09T12:11:21;101546.13;;;25.95;75.62
46211;BME280;52144;48.040;-1.594;2023-07-09T12:13:50;101544.72;;;25.91;75.83
46211;BME280;52144;48.040;-1.594;2023-07-09T12:16:21;101544.69;;;26.19;74.06
46211;BME280;52144;48.040;-1.594;2023-07-09T12:18:49;101537.00;;;26.32;73.36
46211;BME280;52144;48.040;-1.594;2023-07-09T12:21:18;101535.63;;;26.46;74.13
46211;BME280;52144;48.040;-1.594;2023-07-09T12:23:48;101539.13;;;26.38;73.95
46211;BME280;52144;48.040;-1.594;2023-07-09T12:26:18;101539.59;;;26.34;74.24
46211;BME280;52144;48.040;-1.594;2023-07-09T12:28:50;101544.09;;;25.97;74.92
46211;BME280;52144;48.040;-1.594;2023-07-09T12:31:21;101550.50;;;26.79;71.64
46211;BME280;52144;48.040;-1.594;2023-07-09T12:33:54;101539.16;;;26.92;69.07
46211;BME280;52144;48.040;-1.594;2023-07-09T12:36:24;101540.81;;;26.85;67.43
46211;BME280;52144;48.040;-1.594;2023-07-09T12:38:56;101539.78;;;26.68;65.79
46211;BME280;52144;48.040;-1.594;2023-07-09T12:41:30;101545.91;;;26.34;66.37
46211;BME280;52144;48.040;-1.594;2023-07-09T12:44:02;101548.16;;;26.67;66.84
46211;BME280;52144;48.040;-1.594;2023-07-09T12:46:31;101546.00;;;27.14;64.77
46211;BME280;52144;48.040;-1.594;2023-07-09T12:48:59;101550.34;;;27.43;62.92
46211;BME280;52144;48.040;-1.594;2023-07-09T12:51:28;101555.88;;;27.51;61.86
46211;BME280;52144;48.040;-1.594;2023-07-09T12:54:03;101557.09;;;27.31;62.56
46211;BME280;52144;48.040;-1.594;2023-07-09T12:56:34;101558.97;;;27.12;63.17
46211;BME280;52144;48.040;-1.594;2023-07-09T12:59:08;101557.00;;;27.40;61.04
46211;BME280;52144;48.040;-1.594;2023-07-09T13:01:47;101559.41;;;26.81;61.49